createdAt,value
2017-06-26T00:00:16.645Z,15.24
2017-06-26T00:01:32.330Z,15.2
2017-06-26T00:02:47.866Z,15.13
2017-06-26T00:04:03.274Z,15.09
2017-06-26T00:05:18.717Z,15.15
2017-06-26T00:06:34.414Z,15.06
2017-06-26T00:07:49.802Z,14.98
2017-06-26T00:09:05.222Z,14.91
2017-06-26T00:10:20.639Z,14.93
2017-06-26T00:11:35.201Z,14.9
2017-06-26T00:12:50.881Z,14.83
2017-06-26T00:14:06.281Z,14.87
2017-06-26T00:15:21.873Z,14.85
2017-06-26T00:16:37.728Z,14.75
2017-06-26T00:17:53.159Z,14.74
2017-06-26T00:19:08.590Z,14.74
2017-06-26T00:20:24.015Z,14.72
2017-06-26T00:21:39.634Z,14.77
2017-06-26T00:22:55.008Z,14.81
2017-06-26T00:24:09.145Z,14.83
2017-06-26T00:25:24.682Z,14.83
2017-06-26T00:26:40.368Z,14.87
2017-06-26T00:27:54.310Z,14.98
2017-06-26T00:29:09.757Z,14.98
2017-06-26T00:30:25.296Z,15
2017-06-26T00:31:41.100Z,14.95
2017-06-26T00:32:55.217Z,14.9
2017-06-26T00:34:09.318Z,14.98
2017-06-26T00:35:24.740Z,14.99
2017-06-26T00:36:39.102Z,14.91
2017-06-26T00:37:54.487Z,14.93
2017-06-26T00:39:09.917Z,15
2017-06-26T00:40:25.381Z,15.05
2017-06-26T00:41:41.033Z,15.13
2017-06-26T00:42:56.403Z,15.13
2017-06-26T00:44:11.855Z,15.05
2017-06-26T00:45:27.276Z,15.11
2017-06-26T00:46:42.941Z,15.13
2017-06-26T00:47:58.393Z,15.06
2017-06-26T00:49:13.801Z,15
2017-06-26T00:50:29.272Z,14.96
2017-06-26T00:51:44.818Z,14.9
2017-06-26T00:53:00.232Z,14.87
2017-06-26T00:54:15.651Z,14.81
2017-06-26T00:55:31.197Z,14.74
2017-06-26T00:56:46.571Z,14.69
2017-06-26T00:58:01.949Z,14.67
2017-06-26T00:59:17.369Z,14.66
2017-06-26T01:00:32.743Z,14.63
2017-06-26T01:01:47.101Z,14.69
2017-06-26T01:03:01.203Z,14.74
2017-06-26T01:04:16.611Z,14.62
2017-06-26T01:05:32.024Z,14.6
2017-06-26T01:06:45.055Z,14.63
2017-06-26T01:08:00.471Z,14.63
2017-06-26T01:09:15.906Z,14.67
2017-06-26T01:10:31.326Z,14.72
2017-06-26T01:11:47.210Z,14.77
2017-06-26T01:13:01.397Z,14.87
2017-06-26T01:14:16.824Z,14.93
2017-06-26T01:15:32.325Z,14.96
2017-06-26T01:16:46.517Z,15.08
2017-06-26T01:18:02.180Z,15.09
2017-06-26T01:19:17.574Z,15.06
2017-06-26T01:20:33.031Z,15.27
2017-06-26T01:21:47.282Z,15.18
2017-06-26T01:23:02.955Z,15.23
2017-06-26T01:24:18.398Z,15.23
2017-06-26T01:25:32.526Z,15.2
2017-06-26T01:26:48.107Z,15.24
2017-06-26T01:28:03.750Z,15.2
2017-06-26T01:29:19.144Z,15.13
2017-06-26T01:30:34.745Z,15.03
2017-06-26T01:31:50.141Z,15.08
2017-06-26T01:33:05.795Z,14.99
2017-06-26T01:34:21.433Z,14.99
2017-06-26T01:35:37.045Z,14.95
2017-06-26T01:36:52.474Z,14.88
2017-06-26T01:38:08.077Z,14.84
2017-06-26T01:39:20.901Z,14.74
2017-06-26T01:40:36.340Z,14.74
2017-06-26T01:41:51.383Z,14.74
2017-06-26T01:43:07.023Z,14.72
2017-06-26T01:44:22.599Z,14.7
2017-06-26T01:45:37.948Z,14.67
2017-06-26T01:46:53.380Z,14.72
2017-06-26T01:48:09.109Z,14.62
2017-06-26T01:49:24.506Z,14.65
2017-06-26T01:50:37.216Z,14.66
2017-06-26T01:51:52.610Z,14.52
2017-06-26T01:53:08.279Z,14.58
2017-06-26T01:54:23.761Z,14.51
2017-06-26T01:55:39.168Z,14.54
2017-06-26T01:56:54.794Z,14.58
2017-06-26T01:58:10.444Z,14.6
2017-06-26T01:59:25.868Z,14.52
2017-06-26T02:00:41.498Z,14.69
2017-06-26T02:01:56.724Z,14.63
2017-06-26T02:03:12.417Z,14.65
2017-06-26T02:04:27.872Z,14.69
2017-06-26T02:05:43.285Z,14.72
2017-06-26T02:06:58.702Z,14.85
2017-06-26T02:08:14.429Z,14.84
2017-06-26T02:09:29.797Z,14.87
2017-06-26T02:10:45.203Z,14.93
2017-06-26T02:12:00.646Z,14.96
2017-06-26T02:13:15.011Z,14.93
2017-06-26T02:14:30.426Z,14.96
2017-06-26T02:15:45.848Z,14.9
2017-06-26T02:17:01.604Z,14.9
2017-06-26T02:18:15.949Z,15
2017-06-26T02:19:29.922Z,14.9
2017-06-26T02:20:44.028Z,14.87
2017-06-26T02:21:59.657Z,15
2017-06-26T02:23:15.342Z,14.99
2017-06-26T02:24:29.327Z,14.96
2017-06-26T02:25:44.888Z,14.99
2017-06-26T02:26:59.066Z,15.03
2017-06-26T02:28:11.966Z,14.91
2017-06-26T02:29:27.370Z,14.93
2017-06-26T02:30:42.762Z,14.98
2017-06-26T02:31:58.168Z,14.99
2017-06-26T02:33:14.044Z,14.95
2017-06-26T02:34:29.467Z,14.81
2017-06-26T02:35:44.885Z,14.8
2017-06-26T02:37:00.515Z,14.75
2017-06-26T02:38:16.144Z,14.66
2017-06-26T02:39:31.579Z,14.65
2017-06-26T02:40:47.004Z,14.66
2017-06-26T02:43:29.070Z,14.6
2017-06-26T02:44:44.487Z,14.54
2017-06-26T02:45:59.894Z,14.54
2017-06-26T02:47:15.638Z,14.52
2017-06-26T02:48:31.314Z,14.47
2017-06-26T02:49:46.728Z,14.54
2017-06-26T02:51:02.264Z,14.52
2017-06-26T02:52:17.653Z,14.47
2017-06-26T02:53:33.312Z,14.43
2017-06-26T02:54:48.743Z,14.39
2017-06-26T02:56:04.158Z,14.51
2017-06-26T02:57:18.232Z,14.31
2017-06-26T02:58:33.889Z,14.32
2017-06-26T02:59:49.314Z,14.39
2017-06-26T03:01:04.914Z,14.37
2017-06-26T03:02:20.290Z,14.39
2017-06-26T03:03:34.528Z,14.24
2017-06-26T03:04:50.119Z,14.25
2017-06-26T03:06:05.558Z,14.24
2017-06-26T03:07:20.974Z,14.16
2017-06-26T03:08:36.678Z,14.22
2017-06-26T03:09:52.110Z,14.19
2017-06-26T03:11:07.520Z,14.24
2017-06-26T03:12:21.536Z,14.19
2017-06-26T03:13:37.211Z,14.19
2017-06-26T03:14:52.259Z,14.28
2017-06-26T03:16:07.842Z,14.29
2017-06-26T03:17:23.238Z,14.26
2017-06-26T03:18:38.905Z,14.28
2017-06-26T03:19:54.378Z,14.21
2017-06-26T03:21:09.812Z,14.25
2017-06-26T03:22:25.231Z,14.24
2017-06-26T03:23:41.086Z,14.21
2017-06-26T03:24:56.498Z,14.22
2017-06-26T03:26:11.897Z,14.26
2017-06-26T03:27:27.300Z,14.19
2017-06-26T03:28:43.185Z,14.18
2017-06-26T03:29:58.601Z,14.16
2017-06-26T03:31:12.576Z,14.21
2017-06-26T03:32:26.681Z,14.21
2017-06-26T03:33:42.285Z,14.26
2017-06-26T03:34:57.685Z,14.19
2017-06-26T03:36:11.389Z,14.24
2017-06-26T03:37:26.893Z,14.25
2017-06-26T03:38:42.550Z,14.22
2017-06-26T03:39:57.919Z,14.22
2017-06-26T03:41:13.342Z,14.24
2017-06-26T03:42:27.450Z,14.21
2017-06-26T03:43:43.131Z,14.18
2017-06-26T03:44:57.272Z,14.26
2017-06-26T03:46:12.677Z,14.25
2017-06-26T03:47:28.109Z,14.26
2017-06-26T03:48:43.739Z,14.22
2017-06-26T03:49:59.147Z,14.31
2017-06-26T03:51:14.711Z,14.28
2017-06-26T03:52:30.097Z,14.44
2017-06-26T03:53:45.740Z,14.34
2017-06-26T03:55:01.348Z,14.39
2017-06-26T03:56:16.743Z,14.39
2017-06-26T03:57:32.178Z,14.39
2017-06-26T03:58:48.270Z,14.37
2017-06-26T04:00:03.675Z,14.29
2017-06-26T04:01:19.096Z,14.24
2017-06-26T04:02:33.087Z,14.25
2017-06-26T04:03:48.935Z,14.29
2017-06-26T04:05:03.037Z,14.24
2017-06-26T04:06:18.438Z,14.22
2017-06-26T04:07:32.519Z,14.21
2017-06-26T04:08:46.864Z,14.37
2017-06-26T04:10:00.982Z,14.34
2017-06-26T04:11:16.355Z,14.37
2017-06-26T04:13:02.654Z,14.39
2017-06-26T04:15:46.006Z,14.22
2017-06-26T04:17:01.422Z,14.24
2017-06-26T04:18:16.878Z,14.26
2017-06-26T04:19:31.212Z,14.24
2017-06-26T04:20:45.327Z,14.29
2017-06-26T04:22:00.754Z,14.24
2017-06-26T04:23:16.144Z,14.22
2017-06-26T04:24:32.025Z,14.26
2017-06-26T04:25:47.636Z,14.26
2017-06-26T04:27:03.069Z,14.22
2017-06-26T04:28:18.510Z,14.24
2017-06-26T04:29:34.317Z,14.43
2017-06-26T04:30:49.718Z,14.43
2017-06-26T04:32:05.316Z,14.43
2017-06-26T04:33:20.795Z,14.44
2017-06-26T04:35:07.331Z,14.44
2017-06-26T04:36:22.716Z,14.47
2017-06-26T04:37:38.409Z,14.43
2017-06-26T04:38:53.904Z,14.45
2017-06-26T04:40:09.661Z,14.47
2017-06-26T04:41:25.049Z,14.54
2017-06-26T04:42:40.641Z,14.52
2017-06-26T04:43:56.067Z,14.65
2017-06-26T04:45:11.719Z,14.66
2017-06-26T04:46:27.138Z,14.66
2017-06-26T04:47:42.547Z,14.66
2017-06-26T04:48:57.950Z,14.66
2017-06-26T04:50:13.605Z,14.67
2017-06-26T04:51:28.981Z,14.63
2017-06-26T04:52:43.077Z,14.62
2017-06-26T04:53:58.488Z,14.65
2017-06-26T04:55:14.283Z,14.63
2017-06-26T04:56:29.663Z,14.66
2017-06-26T04:57:43.410Z,14.69
2017-06-26T04:58:58.815Z,14.63
2017-06-26T05:00:28.056Z,14.65
2017-06-26T05:01:43.453Z,14.63
2017-06-26T05:02:59.032Z,14.52
2017-06-26T05:04:14.435Z,14.54
2017-06-26T05:05:30.104Z,14.54
2017-06-26T05:06:44.215Z,14.52
2017-06-26T05:07:59.630Z,14.65
2017-06-26T05:09:15.145Z,14.54
2017-06-26T05:10:30.803Z,14.63
2017-06-26T05:11:46.232Z,14.69
2017-06-26T05:13:01.839Z,14.69
2017-06-26T05:14:15.801Z,14.66
2017-06-26T05:15:45.070Z,14.7
2017-06-26T05:17:00.519Z,14.69
2017-06-26T05:18:15.944Z,14.7
2017-06-26T05:19:31.370Z,14.69
2017-06-26T05:20:47.019Z,14.81
2017-06-26T05:22:02.452Z,14.87
2017-06-26T05:23:17.848Z,15
2017-06-26T05:24:33.297Z,14.95
2017-06-26T05:25:48.961Z,14.81
2017-06-26T05:27:04.343Z,14.72
2017-06-26T05:28:18.429Z,14.62
2017-06-26T05:29:33.850Z,14.52
2017-06-26T05:30:49.494Z,14.37
2017-06-26T05:32:04.858Z,14.47
2017-06-26T05:33:20.354Z,14.24
2017-06-26T05:34:35.774Z,14.25
2017-06-26T05:35:51.453Z,14.24
2017-06-26T05:37:06.907Z,14.09
2017-06-26T05:38:22.329Z,14.16
2017-06-26T05:39:36.395Z,14.1
2017-06-26T05:40:52.076Z,14.14
2017-06-26T05:42:07.739Z,14.02
2017-06-26T05:43:23.361Z,14.07
2017-06-26T05:44:38.775Z,13.96
2017-06-26T05:45:54.424Z,14
2017-06-26T05:47:09.881Z,14.03
2017-06-26T05:48:23.840Z,14.06
2017-06-26T05:49:39.208Z,13.91
2017-06-26T05:50:54.498Z,14.03
2017-06-26T05:52:10.059Z,13.91
2017-06-26T05:53:25.499Z,13.94
2017-06-26T05:54:40.904Z,14
2017-06-26T05:55:56.819Z,14.03
2017-06-26T05:57:12.181Z,13.99
2017-06-26T05:58:27.627Z,13.99
2017-06-26T05:59:41.317Z,14.06
2017-06-26T06:00:57.182Z,13.95
2017-06-26T06:02:12.812Z,13.99
2017-06-26T06:03:28.239Z,14.02
2017-06-26T06:04:43.633Z,13.89
2017-06-26T06:05:57.847Z,14.04
2017-06-26T06:07:13.459Z,14.02
2017-06-26T06:08:28.860Z,13.99
2017-06-26T06:09:44.278Z,14.03
2017-06-26T06:10:58.678Z,14
2017-06-26T06:12:14.110Z,14.11
2017-06-26T06:13:29.750Z,14.09
2017-06-26T06:14:45.145Z,14.13
2017-06-26T06:16:00.848Z,14.13
2017-06-26T06:17:16.276Z,14.09
2017-06-26T06:18:31.338Z,14.06
2017-06-26T06:19:46.727Z,14.07
2017-06-26T06:21:02.416Z,14.06
2017-06-26T06:22:17.838Z,14.13
2017-06-26T06:23:33.241Z,14.14
2017-06-26T06:24:48.696Z,14.14
2017-06-26T06:26:04.310Z,14.19
2017-06-26T06:27:19.706Z,14.28
2017-06-26T06:28:35.112Z,14.37
2017-06-26T06:29:50.533Z,14.43
2017-06-26T06:31:06.161Z,14.45
2017-06-26T06:32:21.544Z,14.54
2017-06-26T06:33:37.086Z,14.52
2017-06-26T06:34:52.510Z,14.52
2017-06-26T06:36:08.177Z,14.58
2017-06-26T06:37:23.611Z,14.52
2017-06-26T06:38:37.333Z,14.52
2017-06-26T06:39:52.740Z,14.5
2017-06-26T06:41:08.394Z,14.52
2017-06-26T06:42:23.765Z,14.54
2017-06-26T06:43:36.222Z,14.69
2017-06-26T06:44:51.778Z,14.63
2017-06-26T06:46:07.435Z,14.69
2017-06-26T06:47:22.798Z,14.75
2017-06-26T06:48:38.036Z,14.77
2017-06-26T06:49:53.710Z,14.87
2017-06-26T06:51:09.428Z,14.87
2017-06-26T06:52:23.458Z,14.9
2017-06-26T06:53:37.393Z,14.87
2017-06-26T06:54:51.514Z,14.88
2017-06-26T06:56:06.980Z,14.98
2017-06-26T06:57:22.704Z,14.95
2017-06-26T06:58:38.155Z,14.95
2017-06-26T06:59:53.610Z,14.91
2017-06-26T07:01:07.704Z,14.96
2017-06-26T07:02:23.397Z,14.9
2017-06-26T07:03:38.811Z,15
2017-06-26T07:04:54.269Z,14.99
2017-06-26T07:06:09.292Z,14.93
2017-06-26T07:07:24.980Z,14.96
2017-06-26T07:08:40.438Z,15.11
2017-06-26T07:09:55.858Z,15.08
2017-06-26T07:11:09.963Z,15.11
2017-06-26T07:12:25.304Z,15.25
2017-06-26T07:13:40.410Z,15.4
2017-06-26T07:14:56.053Z,15.57
2017-06-26T07:16:11.606Z,15.57
2017-06-26T07:17:27.366Z,15.64
2017-06-26T07:18:43.052Z,15.7
2017-06-26T07:19:58.684Z,15.7
2017-06-26T07:21:14.161Z,15.68
2017-06-26T07:22:29.787Z,15.69
2017-06-26T07:23:45.210Z,15.75
2017-06-26T07:25:00.769Z,15.8
2017-06-26T07:26:16.189Z,15.8
2017-06-26T07:27:32.024Z,15.87
2017-06-26T07:28:47.513Z,15.92
2017-06-26T07:30:02.988Z,15.88
2017-06-26T07:31:18.379Z,15.92
2017-06-26T07:32:33.914Z,15.96
2017-06-26T07:33:49.381Z,15.98
2017-06-26T07:35:05.034Z,15.92
2017-06-26T07:36:20.682Z,15.95
2017-06-26T07:37:36.535Z,15.96
2017-06-26T07:39:05.514Z,15.99
2017-06-26T07:40:19.651Z,16.07
2017-06-26T07:41:35.316Z,16.2
2017-06-26T07:42:50.906Z,16.21
2017-06-26T07:44:06.366Z,16.34
2017-06-26T07:45:21.512Z,16.28
2017-06-26T07:46:35.930Z,16.27
2017-06-26T07:47:51.305Z,16.38
2017-06-26T07:49:06.735Z,16.39
2017-06-26T07:50:22.177Z,16.43
2017-06-26T07:51:36.462Z,16.53
2017-06-26T07:52:51.950Z,16.61
2017-06-26T07:54:07.439Z,16.75
2017-06-26T07:55:21.538Z,16.9
2017-06-26T07:56:37.385Z,17.11
2017-06-26T07:57:51.388Z,17.21
2017-06-26T07:59:06.903Z,17.3
2017-06-26T08:00:22.397Z,17.45
2017-06-26T08:01:38.211Z,17.54
2017-06-26T08:02:53.787Z,17.61
2017-06-26T08:04:07.932Z,17.73
2017-06-26T08:05:23.738Z,17.7
2017-06-26T08:06:39.431Z,17.86
2017-06-26T08:07:54.875Z,17.92
2017-06-26T08:09:10.478Z,18.05
2017-06-26T08:10:26.185Z,18.09
2017-06-26T08:11:41.879Z,18.23
2017-06-26T08:12:54.543Z,18.34
2017-06-26T08:14:08.309Z,18.37
2017-06-26T08:15:23.742Z,18.44
2017-06-26T08:16:37.892Z,18.42
2017-06-26T08:17:53.741Z,18.55
2017-06-26T08:19:09.197Z,18.57
2017-06-26T08:20:24.673Z,18.55
2017-06-26T08:21:38.848Z,18.62
2017-06-26T08:22:53.249Z,18.63
2017-06-26T08:24:08.731Z,18.65
2017-06-26T08:25:24.117Z,18.72
2017-06-26T08:26:39.591Z,18.63
2017-06-26T08:27:55.514Z,18.57
2017-06-26T08:29:10.942Z,18.57
2017-06-26T08:30:26.397Z,18.63
2017-06-26T08:31:42.027Z,18.49
2017-06-26T08:32:57.697Z,18.55
2017-06-26T08:34:13.175Z,18.62
2017-06-26T08:35:28.708Z,18.57
2017-06-26T08:36:44.196Z,18.6
2017-06-26T08:37:58.478Z,18.62
2017-06-26T08:39:13.955Z,18.56
2017-06-26T08:40:29.387Z,18.63
2017-06-26T08:41:43.392Z,18.71
2017-06-26T08:42:59.060Z,18.75
2017-06-26T08:44:13.191Z,18.67
2017-06-26T08:45:28.788Z,18.91
2017-06-26T08:46:41.648Z,19.02
2017-06-26T08:47:57.321Z,19.12
2017-06-26T08:49:12.785Z,19.19
2017-06-26T08:50:28.244Z,19.15
2017-06-26T08:51:43.685Z,19.24
2017-06-26T08:52:59.395Z,19.28
2017-06-26T08:54:13.500Z,19.28
2017-06-26T08:55:28.904Z,19.42
2017-06-26T08:56:43.034Z,19.76
2017-06-26T08:57:58.763Z,19.93
2017-06-26T08:59:14.202Z,20.14
2017-06-26T09:00:28.330Z,20.28
2017-06-26T09:01:43.786Z,20.73
2017-06-26T09:02:59.518Z,20.85
2017-06-26T09:04:14.947Z,20.93
2017-06-26T09:05:30.418Z,20.83
2017-06-26T09:06:44.547Z,21
2017-06-26T09:07:58.975Z,20.96
2017-06-26T09:09:13.391Z,20.86
2017-06-26T09:10:28.851Z,20.79
2017-06-26T09:11:44.506Z,20.61
2017-06-26T09:12:58.842Z,20.42
2017-06-26T09:14:14.600Z,20.46
2017-06-26T09:15:30.062Z,20.83
2017-06-26T09:16:45.705Z,21.35
2017-06-26T09:18:01.345Z,21.65
2017-06-26T09:19:30.503Z,21.57
2017-06-26T09:20:45.952Z,21.56
2017-06-26T09:22:01.426Z,21.43
2017-06-26T09:23:16.970Z,21.1
2017-06-26T09:24:31.134Z,20.85
2017-06-26T09:25:45.275Z,20.57
2017-06-26T09:27:00.744Z,20.39
2017-06-26T09:28:16.047Z,20.27
2017-06-26T09:29:31.507Z,20.45
2017-06-26T09:30:46.989Z,20.81
2017-06-26T09:32:02.818Z,21.3
2017-06-26T09:33:18.501Z,21.72
2017-06-26T09:34:33.948Z,22.27
2017-06-26T09:35:49.397Z,22.95
2017-06-26T09:37:04.940Z,23.01
2017-06-26T09:38:20.633Z,22.89
2017-06-26T09:39:36.331Z,22.78
2017-06-26T09:40:51.844Z,22.57
2017-06-26T09:42:07.310Z,22.45
2017-06-26T09:43:23.083Z,22.57
2017-06-26T09:44:38.569Z,22.4
2017-06-26T09:45:54.023Z,22.49
2017-06-26T09:47:09.461Z,22.79
2017-06-26T09:48:25.181Z,22.67
2017-06-26T09:49:40.664Z,22.63
2017-06-26T09:50:54.812Z,22.27
2017-06-26T09:52:10.270Z,21.93
2017-06-26T09:53:25.967Z,21.46
2017-06-26T09:54:41.669Z,21.23
2017-06-26T09:55:57.148Z,21.08
2017-06-26T09:57:12.624Z,20.91
2017-06-26T09:58:28.316Z,20.85
2017-06-26T09:59:43.776Z,20.78
2017-06-26T10:00:59.213Z,20.81
2017-06-26T10:02:14.836Z,20.83
2017-06-26T10:03:30.542Z,20.97
2017-06-26T10:04:45.993Z,20.96
2017-06-26T10:06:00.253Z,20.85
2017-06-26T10:07:15.685Z,20.82
2017-06-26T10:08:31.386Z,20.82
2017-06-26T10:09:46.862Z,21.08
2017-06-26T10:11:02.358Z,21.22
2017-06-26T10:12:17.825Z,21.45
2017-06-26T10:13:33.500Z,21.75
2017-06-26T10:14:49.198Z,21.98
2017-06-26T10:16:04.697Z,21.87
2017-06-26T10:17:18.683Z,21.88
2017-06-26T10:18:34.406Z,21.98
2017-06-26T10:19:48.589Z,22.28
2017-06-26T10:21:04.259Z,22.28
2017-06-26T10:22:19.742Z,22.23
2017-06-26T10:23:35.438Z,22.58
2017-06-26T10:24:50.914Z,22.82
2017-06-26T10:26:06.411Z,22.89
2017-06-26T10:27:22.055Z,22.8
2017-06-26T10:28:37.750Z,22.63
2017-06-26T10:29:53.252Z,22.43
2017-06-26T10:31:08.796Z,22.18
2017-06-26T10:32:24.235Z,22.39
2017-06-26T10:33:39.956Z,22.61
2017-06-26T10:34:54.164Z,22.93
2017-06-26T10:36:08.545Z,22.99
2017-06-26T10:37:24.048Z,23.02
2017-06-26T10:38:39.714Z,23.02
2017-06-26T10:39:53.870Z,23.02
2017-06-26T10:41:09.358Z,23.11
2017-06-26T10:42:23.500Z,23.43
2017-06-26T10:43:52.687Z,23.53
2017-06-26T10:45:08.166Z,23.21
2017-06-26T10:46:23.577Z,23.11
2017-06-26T10:47:39.077Z,22.82
2017-06-26T10:48:54.863Z,22.65
2017-06-26T10:50:09.015Z,22.53
2017-06-26T10:51:24.530Z,22.57
2017-06-26T10:52:40.008Z,22.43
2017-06-26T10:53:55.743Z,22.33
2017-06-26T10:55:11.187Z,22.27
2017-06-26T10:56:26.641Z,22.08
2017-06-26T10:57:42.295Z,21.88
2017-06-26T10:58:57.967Z,21.93
2017-06-26T11:00:13.435Z,21.75
2017-06-26T11:01:28.913Z,21.54
2017-06-26T11:02:44.458Z,21.61
2017-06-26T11:04:00.147Z,21.41
2017-06-26T11:05:15.775Z,21.22
2017-06-26T11:06:31.265Z,21.13
2017-06-26T11:07:45.375Z,21.1
2017-06-26T11:09:01.108Z,21.04
2017-06-26T11:10:16.536Z,21.04
2017-06-26T11:11:31.965Z,21.06
2017-06-26T11:12:47.427Z,20.97
2017-06-26T11:14:03.154Z,20.96
2017-06-26T11:15:18.693Z,21.23
2017-06-26T11:16:34.300Z,21.6
2017-06-26T11:17:49.743Z,22.02
2017-06-26T11:19:05.679Z,22.33
2017-06-26T11:20:21.155Z,22.85
2017-06-26T11:21:36.625Z,23.21
2017-06-26T11:22:52.106Z,23.5
2017-06-26T11:24:08.137Z,23.65
2017-06-26T11:25:23.527Z,23.61
2017-06-26T11:26:38.991Z,23.55
2017-06-26T11:27:54.477Z,23.55
2017-06-26T11:29:10.213Z,23.58
2017-06-26T11:30:25.666Z,23.42
2017-06-26T11:31:41.341Z,23.18
2017-06-26T11:32:56.977Z,22.99
2017-06-26T11:34:12.690Z,23.05
2017-06-26T11:35:28.242Z,23.17
2017-06-26T11:36:43.700Z,23.28
2017-06-26T11:37:59.172Z,23.25
2017-06-26T11:39:14.812Z,23.27
2017-06-26T11:40:30.302Z,23.45
2017-06-26T11:41:45.916Z,23.39
2017-06-26T11:43:00.042Z,23.18
2017-06-26T11:44:15.731Z,23.11
2017-06-26T11:45:31.403Z,23.14
2017-06-26T11:46:46.738Z,23.21
2017-06-26T11:48:02.236Z,23.38
2017-06-26T11:49:17.929Z,23.27
2017-06-26T11:50:33.372Z,23.18
2017-06-26T11:51:48.822Z,23.32
2017-06-26T11:53:04.321Z,23.14
2017-06-26T11:54:20.215Z,23.39
2017-06-26T11:55:35.666Z,23.53
2017-06-26T11:56:51.078Z,23.69
2017-06-26T11:58:06.648Z,23.76
2017-06-26T11:59:22.529Z,24.06
2017-06-26T12:00:37.999Z,24.1
2017-06-26T12:01:53.464Z,24.45
2017-06-26T12:03:09.085Z,24.62
2017-06-26T12:04:24.816Z,24.73
2017-06-26T12:05:40.517Z,24.82
2017-06-26T12:06:56.004Z,24.78
2017-06-26T12:08:11.467Z,24.62
2017-06-26T12:09:28.182Z,24.62
2017-06-26T12:11:59.783Z,24.85
2017-06-26T12:13:15.271Z,24.92
2017-06-26T12:14:31.122Z,25.02
2017-06-26T12:15:46.666Z,25.09
2017-06-26T12:17:02.169Z,25.18
2017-06-26T12:18:18.453Z,25.22
2017-06-26T12:19:34.165Z,25.06
2017-06-26T12:20:49.603Z,25.09
2017-06-26T12:22:04.724Z,24.91
2017-06-26T12:23:20.201Z,24.78
2017-06-26T12:24:43.118Z,24.67
2017-06-26T12:25:58.617Z,24.63
2017-06-26T12:27:14.185Z,24.55
2017-06-26T12:28:29.670Z,24.38
2017-06-26T12:29:45.330Z,24.07
2017-06-26T12:31:00.871Z,23.69
2017-06-26T12:32:16.467Z,23.33
2017-06-26T12:33:31.899Z,23.02
2017-06-26T12:34:47.376Z,22.78
2017-06-26T12:36:02.819Z,22.58
2017-06-26T12:37:18.285Z,22.4
2017-06-26T12:38:33.759Z,22.26
2017-06-26T12:39:48.022Z,22.11
2017-06-26T12:41:03.510Z,21.97
2017-06-26T12:42:19.005Z,21.93
2017-06-26T12:43:34.497Z,21.72
2017-06-26T12:44:50.379Z,21.6
2017-06-26T12:46:05.829Z,21.5
2017-06-26T12:47:21.243Z,21.34
2017-06-26T12:48:35.576Z,21.22
2017-06-26T12:49:51.302Z,21.16
2017-06-26T12:51:06.345Z,21.09
2017-06-26T12:52:21.835Z,20.86
2017-06-26T12:53:37.259Z,20.75
2017-06-26T12:54:52.958Z,20.6
2017-06-26T12:56:08.465Z,20.38
2017-06-26T12:57:24.010Z,20.3
2017-06-26T12:58:39.507Z,20.17
2017-06-26T12:59:55.218Z,20.14
2017-06-26T13:01:09.404Z,20.04
2017-06-26T13:02:24.863Z,19.89
2017-06-26T13:03:40.279Z,19.86
2017-06-26T13:04:56.049Z,19.82
2017-06-26T13:06:11.493Z,19.68
2017-06-26T13:07:26.891Z,19.61
2017-06-26T13:08:42.578Z,19.53
2017-06-26T13:09:58.307Z,19.56
2017-06-26T13:11:13.762Z,19.5
2017-06-26T13:12:27.927Z,19.4
2017-06-26T13:13:43.442Z,19.35
2017-06-26T13:14:59.237Z,19.37
2017-06-26T13:16:14.809Z,19.37
2017-06-26T13:17:30.257Z,19.31
2017-06-26T13:18:45.666Z,19.25
2017-06-26T13:20:01.690Z,19.27
2017-06-26T13:21:17.118Z,19.24
2017-06-26T13:22:31.228Z,19.35
2017-06-26T13:23:46.778Z,19.25
2017-06-26T13:25:02.467Z,19.28
2017-06-26T13:26:17.933Z,19.28
2017-06-26T13:27:33.470Z,19.34
2017-06-26T13:28:48.930Z,19.34
2017-06-26T13:30:04.764Z,19.31
2017-06-26T13:31:18.917Z,19.4
2017-06-26T13:32:34.333Z,19.43
2017-06-26T13:33:48.543Z,19.49
2017-06-26T13:35:04.257Z,19.5
2017-06-26T13:36:19.370Z,19.52
2017-06-26T13:37:34.834Z,19.48
2017-06-26T13:38:50.272Z,19.46
2017-06-26T13:40:05.913Z,19.45
2017-06-26T13:41:21.400Z,19.49
2017-06-26T13:42:36.895Z,19.56
2017-06-26T13:43:52.469Z,19.52
2017-06-26T13:45:07.801Z,19.5
2017-06-26T13:46:21.999Z,19.46
2017-06-26T13:47:37.452Z,19.58
2017-06-26T13:48:52.871Z,19.6
2017-06-26T13:50:07.272Z,19.53
2017-06-26T13:51:22.783Z,19.31
2017-06-26T13:52:38.475Z,19.23
2017-06-26T13:53:53.893Z,19.31
2017-06-26T13:55:09.547Z,19.25
2017-06-26T13:56:25.047Z,19.33
2017-06-26T13:57:40.500Z,19.37
2017-06-26T13:58:55.986Z,19.45
2017-06-26T14:00:11.694Z,19.46
2017-06-26T14:01:27.120Z,19.5
2017-06-26T14:02:42.580Z,19.52
2017-06-26T14:03:57.993Z,19.52
2017-06-26T14:05:13.680Z,19.53
2017-06-26T14:06:29.150Z,19.55
2017-06-26T14:07:44.636Z,19.53
2017-06-26T14:09:00.093Z,19.46
2017-06-26T14:10:15.791Z,19.45
2017-06-26T14:11:30.894Z,19.33
2017-06-26T14:12:46.018Z,19.3
2017-06-26T14:14:01.463Z,19.25
2017-06-26T14:15:17.163Z,19.27
2017-06-26T14:16:32.603Z,19.23
2017-06-26T14:17:48.275Z,19.15
2017-06-26T14:19:02.387Z,19.16
2017-06-26T14:20:18.067Z,19.16
2017-06-26T14:21:33.513Z,19.15
2017-06-26T14:22:49.011Z,19.16
2017-06-26T14:24:04.451Z,19.18
2017-06-26T14:25:20.123Z,19.19
2017-06-26T14:26:35.610Z,19.15
2017-06-26T14:27:51.132Z,19.13
2017-06-26T14:29:06.613Z,19.1
2017-06-26T14:30:22.330Z,19.15
2017-06-26T14:31:36.468Z,19.05
2017-06-26T14:32:52.008Z,19
2017-06-26T14:34:06.137Z,19.02
2017-06-26T14:35:21.578Z,18.93
2017-06-26T14:36:37.477Z,18.94
2017-06-26T14:37:52.727Z,18.97
2017-06-26T14:39:08.174Z,18.93
2017-06-26T14:40:23.652Z,18.9
2017-06-26T14:41:39.444Z,18.9
2017-06-26T14:42:54.910Z,18.93
2017-06-26T14:44:10.366Z,18.8
2017-06-26T14:45:24.562Z,18.78
2017-06-26T14:46:40.479Z,18.8
2017-06-26T14:47:55.920Z,18.82
2017-06-26T14:49:11.320Z,18.84
2017-06-26T14:50:26.825Z,18.88
2017-06-26T14:51:42.631Z,18.84
2017-06-26T14:52:58.076Z,18.86
2017-06-26T14:54:13.785Z,18.95
2017-06-26T14:55:29.455Z,18.98
2017-06-26T14:56:45.497Z,19.08
2017-06-26T14:58:00.961Z,19.13
2017-06-26T14:59:16.353Z,19.21
2017-06-26T15:00:30.486Z,19.33
2017-06-26T15:01:44.726Z,19.46
2017-06-26T15:03:00.202Z,19.55
2017-06-26T15:04:14.355Z,19.58
2017-06-26T15:05:29.840Z,19.63
2017-06-26T15:06:45.688Z,19.76
2017-06-26T15:08:01.159Z,19.83
2017-06-26T15:09:15.302Z,19.98
2017-06-26T15:10:30.763Z,20.01
2017-06-26T15:11:46.455Z,20.04
2017-06-26T15:13:02.046Z,20.03
2017-06-26T15:14:17.538Z,19.95
2017-06-26T15:15:33.017Z,20.03
2017-06-26T15:16:48.730Z,20.05
2017-06-26T15:18:04.351Z,20.11
2017-06-26T15:19:19.828Z,20.23
2017-06-26T15:20:35.324Z,20.2
2017-06-26T15:21:50.980Z,20.24
2017-06-26T15:23:05.041Z,20.27
2017-06-26T15:24:19.359Z,20.34
2017-06-26T15:25:34.840Z,20.34
2017-06-26T15:26:50.519Z,20.3
2017-06-26T15:28:04.647Z,20.38
2017-06-26T15:29:20.178Z,20.36
2017-06-26T15:30:35.657Z,20.31
2017-06-26T15:31:51.280Z,20.27
2017-06-26T15:33:06.979Z,20.2
2017-06-26T15:34:22.420Z,20.26
2017-06-26T15:35:37.898Z,20.14
2017-06-26T15:36:53.807Z,20.14
2017-06-26T15:38:40.094Z,20.11
2017-06-26T15:39:55.601Z,20.05
2017-06-26T15:41:11.005Z,19.9
2017-06-26T15:42:26.747Z,19.86
2017-06-26T15:43:42.153Z,19.82
2017-06-26T15:44:57.643Z,19.82
2017-06-26T15:46:13.157Z,19.68
2017-06-26T15:47:28.898Z,19.65
2017-06-26T15:48:44.417Z,19.76
2017-06-26T15:49:59.962Z,19.73
2017-06-26T15:51:15.637Z,19.79
2017-06-26T15:52:31.341Z,19.86
2017-06-26T15:53:46.990Z,19.92
2017-06-26T15:55:02.471Z,19.97
2017-06-26T15:56:17.901Z,19.95
2017-06-26T15:57:32.440Z,19.95
2017-06-26T15:58:47.854Z,19.83
2017-06-26T16:00:02.945Z,19.89
2017-06-26T16:01:17.032Z,19.82
2017-06-26T16:02:32.764Z,19.89
2017-06-26T16:03:48.268Z,19.89
2017-06-26T16:05:02.353Z,19.89
2017-06-26T16:06:17.808Z,19.82
2017-06-26T16:07:33.573Z,19.85
2017-06-26T16:08:49.041Z,19.79
2017-06-26T16:10:04.437Z,19.78
2017-06-26T16:11:18.607Z,19.78
2017-06-26T16:12:34.406Z,19.71
2017-06-26T16:13:49.906Z,19.73
2017-06-26T16:15:04.101Z,19.78
2017-06-26T16:16:19.599Z,19.74
2017-06-26T16:17:35.302Z,19.68
2017-06-26T16:18:50.738Z,19.83
2017-06-26T16:20:06.284Z,19.88